Time;durP1;ratioP1;P1;durP2;ratioP2;P2;SDS_P1;SDS_P2;PMS_P1;PMS_P2;Temp;Humidity;BMP_temperature;BMP_pressure;BME280_temperature;BME280_humidity;BME280_pressure;Samples;Min_cycle;Max_cycle;Signal;HPM_P1;HPM_P2
2021/11/10 00:02:04;;;;;;;1.50;1.40;;;;;;;9.50;100.00;101514.19;6048880;29;20215;-73
2021/11/10 00:05:11;;;;;;;1.40;1.40;;;;;;;9.44;100.00;101509.53;6048199;29;20540;-73
2021/11/10 00:08:16;;;;;;;1.77;1.75;;;;;;;9.43;100.00;101502.38;6048567;29;20191;-73
2021/11/10 00:11:21;;;;;;;1.65;1.65;;;;;;;9.49;100.00;101507.06;6048775;29;20342;-73
2021/11/10 00:14:26;;;;;;;2.60;1.60;;;;;;;9.48;100.00;101505.38;6048725;29;20197;-73
2021/11/10 00:17:32;;;;;;;1.75;1.75;;;;;;;9.49;100.00;101512.50;6048464;29;20258;-73
2021/11/10 00:20:37;;;;;;;1.30;1.30;;;;;;;9.48;100.00;101513.53;6048684;29;20334;-73
2021/11/10 00:23:41;;;;;;;1.40;1.40;;;;;;;9.62;100.00;101518.09;6047742;29;20222;-77
2021/11/10 00:26:45;;;;;;;1.42;1.42;;;;;;;9.63;100.00;101514.31;6048628;29;20194;-73
2021/11/10 00:29:51;;;;;;;1.40;1.40;;;;;;;9.61;100.00;101521.84;6062317;29;20215;-74
2021/11/10 00:32:57;;;;;;;1.73;1.70;;;;;;;9.60;100.00;101513.88;6046701;29;20426;-73
2021/11/10 00:36:01;;;;;;;38.60;19.52;;;;;;;9.70;100.00;101515.25;6048177;29;20191;-73
2021/11/10 00:39:07;;;;;;;2.10;2.10;;;;;;;9.68;100.00;101511.84;6046703;29;20389;-73
2021/11/10 00:42:11;;;;;;;1.75;1.75;;;;;;;9.70;100.00;101498.91;6047878;29;20296;-73
2021/11/10 00:45:15;;;;;;;1.70;1.70;;;;;;;9.63;100.00;101487.06;6046126;29;20428;-73
2021/11/10 00:48:21;;;;;;;1.60;1.60;;;;;;;9.68;100.00;101490.06;6047148;29;20363;-73
2021/11/10 00:51:25;;;;;;;1.70;1.70;;;;;;;9.75;100.00;101490.97;6047052;29;20429;-73
2021/11/10 00:54:30;;;;;;;1.70;1.70;;;;;;;9.73;100.00;101498.47;6048284;29;20191;-73
2021/11/10 00:57:34;;;;;;;1.70;1.60;;;;;;;9.73;100.00;101503.13;6046951;29;20497;-73
2021/11/10 01:00:40;;;;;;;1.80;1.80;;;;;;;9.81;100.00;101492.09;6048285;29;20210;-73
2021/11/10 01:03:47;;;;;;;1.30;1.30;;;;;;;9.81;100.00;101503.81;6052300;29;20207;-73
2021/11/10 01:06:51;;;;;;;1.45;1.45;;;;;;;9.80;100.00;101493.97;6065444;29;20246;-73
2021/11/10 01:09:58;;;;;;;1.52;1.52;;;;;;;9.80;100.00;101491.22;6052524;29;20191;-73
2021/11/10 01:13:03;;;;;;;36.40;19.92;;;;;;;9.87;100.00;101494.00;6065465;29;20233;-73
2021/11/10 01:16:08;;;;;;;4.15;3.88;;;;;;;9.95;100.00;101486.53;6050772;29;20207;-73
2021/11/10 01:19:15;;;;;;;1.80;1.80;;;;;;;10.03;100.00;101493.72;6065052;29;20289;-74
2021/11/10 01:22:19;;;;;;;1.75;1.75;;;;;;;10.05;100.00;101492.50;6050477;29;20241;-73
2021/11/10 01:25:25;;;;;;;1.23;1.23;;;;;;;10.05;100.00;101492.50;6050646;29;20238;-73
2021/11/10 01:28:29;;;;;;;1.60;1.60;;;;;;;10.12;100.00;101491.72;6065208;29;20229;-73
2021/11/10 01:31:34;;;;;;;4.30;3.97;;;;;;;10.20;100.00;101488.84;6049724;29;20217;-73
2021/11/10 01:34:40;;;;;;;15.40;9.25;;;;;;;10.26;100.00;101483.44;6050569;29;20211;-73
2021/11/10 01:37:48;;;;;;;3.38;3.28;;;;;;;10.23;100.00;101483.00;6065407;29;20288;-73
2021/11/10 01:40:53;;;;;;;1.70;1.70;;;;;;;10.28;100.00;101467.72;6065065;29;20285;-73
2021/11/10 01:44:05;;;;;;;1.60;1.60;;;;;;;10.31;100.00;101480.13;6049154;29;20433;-73
2021/11/10 01:47:13;;;;;;;1.48;1.48;;;;;;;10.32;100.00;101462.72;6051313;29;20195;-73
2021/11/10 01:50:20;;;;;;;1.60;1.60;;;;;;;10.28;100.00;101461.41;6051624;29;20254;-74
2021/11/10 01:53:25;;;;;;;1.30;1.30;;;;;;;10.34;100.00;101463.34;6049631;29;20211;-73
2021/11/10 01:56:29;;;;;;;1.08;1.08;;;;;;;10.41;100.00;101453.31;6049141;29;20238;-74
2021/11/10 01:59:37;;;;;;;1.10;1.10;;;;;;;10.46;100.00;101448.09;6050185;29;20287;-73
2021/11/10 02:02:42;;;;;;;1.20;1.20;;;;;;;10.36;100.00;101450.34;6050013;29;20347;-73
2021/11/10 02:05:49;;;;;;;1.30;1.30;;;;;;;10.35;100.00;101448.69;6049047;29;20552;-74
2021/11/10 02:09:28;;;;;;;1.40;1.30;;;;;;;10.47;100.00;101447.06;6037153;29;20502;-73
2021/11/10 02:12:36;;;;;;;1.05;1.05;;;;;;;10.45;100.00;101451.88;6049494;29;20259;-74
2021/11/10 02:15:40;;;;;;;2.80;1.20;;;;;;;10.45;100.00;101446.44;6049032;29;20446;-73
2021/11/10 02:18:46;;;;;;;2.70;1.10;;;;;;;10.56;100.00;101451.31;6049432;29;20206;-73
2021/11/10 02:21:58;;;;;;;1.20;1.20;;;;;;;10.57;100.00;101453.00;6064714;29;20231;-73
2021/11/10 02:25:03;;;;;;;1.05;1.05;;;;;;;10.55;100.00;101449.63;6050872;29;20197;-74
2021/11/10 02:28:07;;;;;;;1.40;1.40;;;;;;;10.54;100.00;101453.41;6049664;29;20250;-73
2021/11/10 02:31:11;;;;;;;1.10;1.10;;;;;;;10.51;100.00;101459.25;6064981;29;20384;-73
2021/11/10 02:34:17;;;;;;;1.42;1.42;;;;;;;10.52;100.00;101450.03;6048490;29;20273;-73
2021/11/10 02:37:23;;;;;;;1.00;1.00;;;;;;;10.58;100.00;101449.22;6049367;29;20191;-73
2021/11/10 02:40:28;;;;;;;1.00;1.00;;;;;;;10.69;100.00;101454.09;6049237;29;20574;-73
2021/11/10 02:43:32;;;;;;;1.15;1.05;;;;;;;10.64;100.00;101459.31;6063963;29;20532;-73
2021/11/10 02:46:37;;;;;;;1.20;1.20;;;;;;;10.65;100.00;101450.09;6050044;29;20191;-74
2021/11/10 02:49:41;;;;;;;1.40;1.40;;;;;;;10.69;100.00;101456.81;6049362;29;20497;-73
2021/11/10 02:52:47;;;;;;;1.27;1.27;;;;;;;10.70;100.00;101447.59;6063496;29;20239;-73
2021/11/10 02:55:52;;;;;;;1.17;1.17;;;;;;;10.80;100.00;101447.22;6063505;29;20290;-74
2021/11/10 02:58:57;;;;;;;1.13;1.13;;;;;;;10.83;100.00;101436.75;6049908;29;20198;-73
2021/11/10 03:02:04;;;;;;;1.27;1.27;;;;;;;10.83;100.00;101439.47;6047634;29;20444;-74
2021/11/10 03:05:10;;;;;;;1.08;1.08;;;;;;;10.88;100.00;101425.22;6048491;29;20249;-74
2021/11/10 03:08:19;;;;;;;1.10;1.10;;;;;;;10.88;100.00;101426.06;6047297;29;20207;-74
2021/11/10 03:11:31;;;;;;;1.38;1.20;;;;;;;10.93;100.00;101437.19;6062999;29;20327;-74
2021/11/10 03:14:37;;;;;;;1.33;1.33;;;;;;;10.80;100.00;101420.78;6048482;29;20246;-74
2021/11/10 03:17:41;;;;;;;1.20;1.20;;;;;;;10.82;100.00;101429.59;6047658;29;20214;-73
2021/11/10 03:20:47;;;;;;;0.90;0.90;;;;;;;10.82;100.00;101426.88;6063321;29;20213;-73
2021/11/10 03:23:52;;;;;;;1.10;1.10;;;;;;;10.90;100.00;101421.22;6062574;29;20622;-73
2021/11/10 03:26:57;;;;;;;1.23;1.23;;;;;;;10.97;100.00;101422.09;6049597;29;20191;-73
2021/11/10 03:30:01;;;;;;;1.10;1.10;;;;;;;10.98;100.00;101423.78;6062548;29;20207;-73
2021/11/10 03:33:16;;;;;;;1.10;1.10;;;;;;;10.99;100.00;101411.78;6047670;29;20210;-73
2021/11/10 03:36:20;;;;;;;1.00;1.00;;;;;;;11.02;100.00;101408.66;6049037;29;20190;-73
2021/11/10 03:39:26;;;;;;;1.00;1.00;;;;;;;11.11;100.00;101401.97;6047259;29;20389;-73
2021/11/10 03:42:31;;;;;;;1.55;1.15;;;;;;;11.06;100.00;101399.03;6047938;29;20544;-73
2021/11/10 03:45:35;;;;;;;1.00;1.00;;;;;;;11.01;100.00;101401.53;6063495;29;20323;-73
2021/11/10 03:48:45;;;;;;;1.30;1.30;;;;;;;11.09;100.00;101404.03;6047069;29;20519;-73
2021/11/10 03:51:52;;;;;;;1.20;1.20;;;;;;;11.13;100.00;101410.78;6047348;29;20242;-73
2021/11/10 03:54:58;;;;;;;1.20;1.20;;;;;;;11.08;100.00;101399.66;6047847;29;20319;-73
2021/11/10 03:58:08;;;;;;;1.20;1.20;;;;;;;11.16;100.00;101404.91;6048849;29;20191;-74
2021/11/10 04:01:14;;;;;;;2.83;1.00;;;;;;;11.19;100.00;101403.66;6062519;29;20207;-73
2021/11/10 04:04:20;;;;;;;1.30;1.30;;;;;;;11.22;100.00;101404.06;6047074;29;20336;-73
2021/11/10 04:07:25;;;;;;;1.35;1.35;;;;;;;11.28;100.00;101405.97;6047232;29;20352;-73
2021/11/10 04:10:32;;;;;;;1.33;1.33;;;;;;;11.32;100.00;101409.16;6062168;29;20274;-73
2021/11/10 04:13:38;;;;;;;1.23;1.23;;;;;;;11.24;100.00;101404.72;6047464;29;20509;-73
2021/11/10 04:16:43;;;;;;;1.20;1.20;;;;;;;11.32;100.00;101404.50;6062689;29;20207;-73
2021/11/10 04:19:47;;;;;;;1.23;1.23;;;;;;;11.37;100.00;101405.78;6047397;29;20388;-73
2021/11/10 04:22:53;;;;;;;2.28;1.30;;;;;;;11.45;100.00;101389.19;6046443;29;20547;-73
2021/11/10 04:26:00;;;;;;;1.75;1.20;;;;;;;11.45;100.00;101402.84;6048584;29;20222;-73
2021/11/10 04:29:06;;;;;;;1.10;1.10;;;;;;;11.32;100.00;101396.31;6047227;29;20213;-73
2021/11/10 04:32:10;;;;;;;1.30;1.23;;;;;;;11.39;100.00;101398.22;6061647;29;20213;-73
2021/11/10 04:35:16;;;;;;;1.10;1.10;;;;;;;11.40;100.00;101405.38;6064612;29;20258;-73
2021/11/10 04:38:23;;;;;;;1.67;1.30;;;;;;;11.30;100.00;101412.06;6050918;29;20281;-73
2021/11/10 04:41:29;;;;;;;1.10;1.10;;;;;;;11.41;100.00;101401.56;6051323;29;20210;-73
2021/11/10 04:44:35;;;;;;;1.40;1.30;;;;;;;11.40;100.00;101399.91;6051775;29;20226;-73
2021/11/10 04:47:40;;;;;;;1.38;1.27;;;;;;;11.38;100.00;101407.44;6052920;29;20198;-73
2021/11/10 04:50:46;;;;;;;1.48;1.40;;;;;;;11.48;100.00;101408.72;6052591;29;20226;-73
2021/11/10 04:53:51;;;;;;;1.05;1.05;;;;;;;11.52;100.00;101392.75;6050592;29;20242;-73
2021/11/10 04:56:56;;;;;;;0.90;0.90;;;;;;;11.42;100.00;101393.19;6065865;29;20388;-73
2021/11/10 05:00:01;;;;;;;1.30;1.20;;;;;;;11.54;100.00;101390.66;6050924;29;20331;-74
2021/11/10 05:03:20;;;;;;;1.10;0.90;;;;;;;11.53;100.00;101389.81;6051250;29;20226;-73
2021/11/10 05:06:26;;;;;;;0.80;0.80;;;;;;;11.52;100.00;101381.84;6051283;29;20269;-73
2021/11/10 05:09:31;;;;;;;0.95;0.95;;;;;;;11.43;100.00;101388.56;6066244;29;20239;-73
2021/11/10 05:12:40;;;;;;;1.13;1.13;;;;;;;11.54;100.00;101385.19;6051067;29;20206;-73
2021/11/10 05:15:45;;;;;;;1.75;1.42;;;;;;;11.61;100.00;101386.88;6050188;29;20217;-73
2021/11/10 05:18:54;;;;;;;0.80;0.80;;;;;;;11.58;100.00;101381.00;6050281;29;20395;-73
2021/11/10 05:21:59;;;;;;;1.10;0.93;;;;;;;11.52;100.00;101392.75;6052192;29;20191;-73
2021/11/10 05:25:03;;;;;;;0.90;0.90;;;;;;;11.52;100.00;101376.38;6051937;29;20282;-73
2021/11/10 05:28:10;;;;;;;1.23;1.23;;;;;;;11.52;100.00;101365.44;6050369;29;20207;-73
2021/11/10 05:31:15;;;;;;;0.90;0.90;;;;;;;11.56;100.00;101366.69;6051234;29;20199;-74
2021/11/10 05:34:19;;;;;;;1.83;1.73;;;;;;;11.59;100.00;101371.72;6050735;29;20199;-74
2021/11/10 05:37:23;;;;;;;1.00;1.00;;;;;;;11.55;100.00;101375.97;6050595;29;20520;-74
2021/11/10 05:40:28;;;;;;;0.90;0.90;;;;;;;11.60;100.00;101362.50;6050492;29;20447;-74
2021/11/10 05:43:33;;;;;;;0.80;0.80;;;;;;;11.57;100.00;101379.31;6051148;29;20222;-74
2021/11/10 05:46:37;;;;;;;0.88;0.88;;;;;;;11.53;100.00;101367.13;6050388;29;20191;-74
2021/11/10 05:49:41;;;;;;;0.88;0.88;;;;;;;11.62;100.00;101383.09;6051713;29;20195;-74
2021/11/10 05:52:48;;;;;;;0.82;0.80;;;;;;;11.70;100.00;101374.72;6050217;29;20435;-74
2021/11/10 05:55:55;;;;;;;0.75;0.75;;;;;;;11.67;100.00;101368.78;6051250;29;20198;-74
2021/11/10 05:59:02;;;;;;;0.80;0.80;;;;;;;11.61;100.00;101375.09;6051139;29;20222;-74
2021/11/10 06:02:07;;;;;;;0.85;0.85;;;;;;;11.60;100.00;101373.44;6051084;29;20191;-74
2021/11/10 06:05:15;;;;;;;0.90;0.90;;;;;;;11.61;100.00;101364.16;6050573;29;20246;-74
2021/11/10 06:08:19;;;;;;;0.80;0.80;;;;;;;11.66;100.00;101372.56;6050017;29;20380;-75
2021/11/10 06:11:45;;;;;;;0.88;0.88;;;;;;;11.53;100.00;101372.59;6051035;29;20214;-74
2021/11/10 06:14:51;;;;;;;0.80;0.80;;;;;;;11.55;100.00;101381.41;6050991;29;20258;-74
2021/11/10 06:17:55;;;;;;;0.80;0.80;;;;;;;11.62;100.00;101377.63;6050644;29;20240;-75
2021/11/10 06:21:00;;;;;;;0.75;0.75;;;;;;;11.63;100.00;101383.94;6049649;29;20598;-74
2021/11/10 06:24:04;;;;;;;1.10;0.60;;;;;;;11.66;100.00;101388.97;6050385;29;20288;-75
2021/11/10 06:27:10;;;;;;;0.63;0.60;;;;;;;11.74;100.00;101386.06;6048871;29;20213;-75
2021/11/10 06:30:16;;;;;;;0.80;0.80;;;;;;;11.64;100.00;101391.06;6050740;29;20191;-72
2021/11/10 06:33:20;;;;;;;0.82;0.82;;;;;;;11.65;100.00;101390.03;6049315;29;20530;-74
2021/11/10 06:36:24;;;;;;;0.68;0.68;;;;;;;11.68;100.00;101387.78;6050422;29;20275;-73
2021/11/10 06:39:28;;;;;;;0.88;0.88;;;;;;;11.81;100.00;101384.19;6049069;29;20524;-73
2021/11/10 06:42:33;;;;;;;0.90;0.90;;;;;;;11.71;100.00;101387.31;6048914;29;20361;-73
2021/11/10 06:45:38;;;;;;;0.75;0.75;;;;;;;11.77;100.00;101389.22;6048910;29;20468;-73
2021/11/10 06:48:42;;;;;;;0.82;0.82;;;;;;;11.73;100.00;101384.41;6049824;29;20258;-73
2021/11/10 06:51:47;;;;;;;0.70;0.70;;;;;;;11.88;100.00;101382.28;6050087;29;20226;-73
2021/11/10 06:54:51;;;;;;;1.10;0.70;;;;;;;11.90;100.00;101381.00;6049981;29;20226;-73
2021/11/10 06:57:57;;;;;;;1.85;0.73;;;;;;;11.93;100.00;101382.47;6049393;29;20195;-72
2021/11/10 07:01:02;;;;;;;0.80;0.80;;;;;;;11.89;100.00;101394.88;6049690;29;20253;-74
2021/11/10 07:04:07;;;;;;;0.80;0.80;;;;;;;11.82;100.00;101394.03;6048685;29;20430;-74
2021/11/10 07:07:13;;;;;;;0.73;0.73;;;;;;;11.91;100.00;101390.06;6047244;29;20242;-74
2021/11/10 07:10:17;;;;;;;1.20;0.82;;;;;;;11.97;100.00;101397.38;6049528;29;20230;-74
2021/11/10 07:13:22;;;;;;;0.70;0.70;;;;;;;11.92;100.00;101399.91;6048511;29;20227;-74
2021/11/10 07:16:28;;;;;;;0.80;0.80;;;;;;;11.94;100.00;101387.72;6049246;29;20195;-74
2021/11/10 07:19:34;;;;;;;0.68;0.63;;;;;;;11.89;100.00;101390.25;6049667;29;20199;-74
2021/11/10 07:22:39;;;;;;;0.70;0.70;;;;;;;11.95;100.00;101377.63;6048390;29;20191;-74
2021/11/10 07:25:43;;;;;;;0.70;0.70;;;;;;;11.90;100.00;101385.63;6048415;29;20281;-74
2021/11/10 07:28:48;;;;;;;0.70;0.70;;;;;;;11.88;100.00;101377.66;6049408;29;20197;-74
2021/11/10 07:31:53;;;;;;;0.63;0.63;;;;;;;11.95;100.00;101383.09;6048944;29;20191;-74
2021/11/10 07:34:58;;;;;;;0.70;0.70;;;;;;;11.95;100.00;101380.38;6049181;29;20195;-74
2021/11/10 07:38:02;;;;;;;0.80;0.80;;;;;;;11.94;100.00;101386.88;6048650;29;20191;-74
2021/11/10 07:41:07;;;;;;;0.60;0.60;;;;;;;11.98;100.00;101382.69;6048903;29;20231;-74
2021/11/10 07:44:12;;;;;;;0.70;0.70;;;;;;;11.94;100.00;101378.66;6048888;29;20191;-74
2021/11/10 07:47:19;;;;;;;0.80;0.80;;;;;;;12.02;100.00;101378.44;6048550;29;20218;-74
2021/11/10 07:50:24;;;;;;;0.63;0.63;;;;;;;11.86;100.00;101382.47;6048761;29;20223;-75
2021/11/10 07:53:28;;;;;;;2.30;0.60;;;;;;;12.04;100.00;101370.03;6047656;29;20474;-74
2021/11/10 07:56:33;;;;;;;0.70;0.70;;;;;;;11.97;100.00;101367.31;6047914;29;20226;-74
2021/11/10 07:59:37;;;;;;;4.47;0.90;;;;;;;12.01;100.00;101387.72;6048888;29;20253;-74
2021/11/10 08:02:44;;;;;;;0.93;0.73;;;;;;;12.01;100.00;101376.78;6048418;29;20263;-74
2021/11/10 08:05:49;;;;;;;1.70;0.60;;;;;;;12.07;100.00;101389.59;6048126;29;20309;-74
2021/11/10 08:08:53;;;;;;;0.65;0.65;;;;;;;12.13;100.00;101380.53;6047120;29;20191;-74
2021/11/10 08:11:58;;;;;;;0.65;0.65;;;;;;;12.16;100.00;101374.66;6047555;29;20191;-75
2021/11/10 08:15:02;;;;;;;0.60;0.60;;;;;;;12.15;100.00;101370.22;6048313;29;20198;-75
2021/11/10 08:18:09;;;;;;;0.75;0.70;;;;;;;12.12;100.00;101361.63;6048573;29;20206;-74
2021/11/10 08:21:14;;;;;;;1.10;0.70;;;;;;;12.23;100.00;101378.19;6048313;29;20191;-75
2021/11/10 08:24:18;;;;;;;1.38;0.70;;;;;;;12.21;100.00;101377.56;6048609;29;20213;-74
2021/11/10 08:27:22;;;;;;;2.08;0.77;;;;;;;12.12;100.00;101373.38;6048112;29;20294;-74
2021/11/10 08:30:26;;;;;;;0.95;0.95;;;;;;;12.19;100.00;101379.69;6048713;29;20228;-75
2021/11/10 08:33:32;;;;;;;3.40;1.35;;;;;;;12.16;100.00;101380.13;6048288;29;20191;-74
2021/11/10 08:36:36;;;;;;;0.68;0.68;;;;;;;12.21;100.00;101383.03;6048150;29;20194;-74
2021/11/10 08:39:41;;;;;;;0.50;0.50;;;;;;;12.18;100.00;101383.47;6048156;29;20198;-74
2021/11/10 08:42:45;;;;;;;0.70;0.70;;;;;;;12.25;99.53;101372.53;6047129;29;20198;-74
2021/11/10 08:45:53;;;;;;;0.70;0.70;;;;;;;12.32;99.21;101376.06;6047006;29;20221;-74
2021/11/10 08:48:59;;;;;;;2.00;0.88;;;;;;;12.22;99.34;101379.25;6047026;29;20191;-74
2021/11/10 08:52:04;;;;;;;0.77;0.77;;;;;;;12.27;99.38;101379.47;6046815;29;20402;-75
2021/11/10 08:55:10;;;;;;;1.75;0.73;;;;;;;12.30;98.98;101370.81;6048021;29;20195;-74
2021/11/10 08:58:17;;;;;;;0.70;0.70;;;;;;;12.22;98.89;101368.28;6048105;29;20272;-74
2021/11/10 09:01:21;;;;;;;0.98;0.98;;;;;;;12.23;98.97;101364.50;6046817;29;20505;-73
2021/11/10 09:04:27;;;;;;;0.63;0.63;;;;;;;12.31;98.06;101372.50;6047687;29;20273;-74
2021/11/10 09:07:31;;;;;;;0.70;0.70;;;;;;;12.14;98.95;101371.28;6048175;29;20250;-73
2021/11/10 09:10:35;;;;;;;1.00;0.80;;;;;;;12.08;99.54;101358.47;6046923;29;20191;-74
2021/11/10 09:13:39;;;;;;;0.90;0.90;;;;;;;12.28;98.43;101372.91;6046784;29;20274;-73
2021/11/10 09:16:44;;;;;;;0.82;0.82;;;;;;;12.34;98.13;101372.06;6047721;29;20274;-74
2021/11/10 09:19:49;;;;;;;0.80;0.80;;;;;;;12.24;98.59;101382.63;6046744;29;20537;-73
2021/11/10 09:22:55;;;;;;;1.65;0.90;;;;;;;12.19;98.71;101374.22;6051715;29;20222;-73
2021/11/10 09:25:59;;;;;;;1.90;0.90;;;;;;;12.25;98.45;101373.34;6052060;29;20215;-73
2021/11/10 09:29:04;;;;;;;0.80;0.80;;;;;;;12.18;98.73;101378.00;6052164;29;20198;-73
2021/11/10 09:32:09;;;;;;;0.90;0.90;;;;;;;12.17;98.78;101391.91;6050673;29;20197;-73
2021/11/10 09:35:17;;;;;;;0.60;0.60;;;;;;;12.34;97.90;101383.00;6051625;29;20195;-73
2021/11/10 09:38:22;;;;;;;0.90;0.90;;;;;;;12.31;97.82;101388.91;6050573;29;20290;-73
2021/11/10 09:41:27;;;;;;;0.73;0.73;;;;;;;12.33;97.51;101377.72;6051837;29;20262;-74
2021/11/10 09:44:31;;;;;;;1.42;0.90;;;;;;;12.29;98.54;101380.09;6051025;29;20191;-73
2021/11/10 09:47:39;;;;;;;0.90;0.80;;;;;;;12.22;99.37;101373.75;6050237;29;20219;-73
2021/11/10 09:50:46;;;;;;;1.15;0.90;;;;;;;12.29;98.77;101369.13;6050349;29;20476;-73
2021/11/10 09:53:50;;;;;;;0.80;0.80;;;;;;;12.34;98.81;101376.69;6051186;29;20271;-74
2021/11/10 09:56:55;;;;;;;0.73;0.73;;;;;;;12.34;98.74;101372.06;6051533;29;20258;-73
2021/11/10 10:00:00;;;;;;;0.70;0.70;;;;;;;12.38;99.13;101367.81;6051397;29;20266;-73
2021/11/10 10:03:20;;;;;;;0.80;0.80;;;;;;;12.33;99.20;101370.38;6051066;29;20192;-73
2021/11/10 10:06:28;;;;;;;0.70;0.70;;;;;;;12.41;98.85;101356.47;6050697;29;20242;-73
2021/11/10 10:09:32;;;;;;;0.90;0.90;;;;;;;12.40;98.83;101353.94;6050500;29;20254;-72
2021/11/10 10:12:40;;;;;;;0.70;0.70;;;;;;;12.39;98.31;101350.38;6050990;29;20199;-73
2021/11/10 10:15:45;;;;;;;0.80;0.80;;;;;;;12.39;98.48;101344.03;6050609;29;20190;-73
2021/11/10 10:18:50;;;;;;;0.70;0.70;;;;;;;12.42;98.05;101352.69;6050990;29;20217;-74
2021/11/10 10:22:00;;;;;;;1.13;0.68;;;;;;;12.49;96.20;101337.06;6050551;29;20198;-73
2021/11/10 10:25:05;;;;;;;0.70;0.70;;;;;;;12.50;95.48;101327.81;6049548;29;20198;-73
2021/11/10 10:28:12;;;;;;;2.63;0.90;;;;;;;12.54;95.03;101333.66;6049596;29;20219;-73
2021/11/10 10:31:19;;;;;;;1.08;0.70;;;;;;;12.55;94.18;101330.72;6050274;29;20296;-72
2021/11/10 10:34:23;;;;;;;1.85;0.80;;;;;;;12.55;93.88;101341.66;6050170;29;20191;-73
2021/11/10 10:37:29;;;;;;;0.68;0.68;;;;;;;12.56;92.98;101337.84;6050489;29;20198;-73
2021/11/10 10:40:34;;;;;;;0.70;0.70;;;;;;;12.63;92.68;101334.25;6049510;29;20191;-72
2021/11/10 10:43:42;;;;;;;0.70;0.70;;;;;;;12.58;92.80;101338.47;6050059;29;20191;-74
2021/11/10 10:46:48;;;;;;;0.60;0.60;;;;;;;12.68;92.38;101339.91;6050166;29;20218;-72
2021/11/10 10:49:52;;;;;;;0.80;0.80;;;;;;;12.77;92.04;101341.34;6050182;29;20198;-72
2021/11/10 10:52:57;;;;;;;0.60;0.60;;;;;;;12.71;91.51;101345.78;6048807;29;20377;-72
2021/11/10 10:56:15;;;;;;;0.70;0.70;;;;;;;12.79;91.57;101336.50;6048014;29;20206;-73
2021/11/10 10:59:19;;;;;;;0.63;0.63;;;;;;;12.82;90.93;101338.78;6048907;29;20444;-74
2021/11/10 11:02:26;;;;;;;0.70;0.70;;;;;;;12.80;91.17;101338.16;6049592;29;20191;-74
2021/11/10 11:05:39;;;;;;;1.05;0.82;;;;;;;12.80;89.36;101339.00;6049539;29;20340;-74
2021/11/10 11:08:47;;;;;;;0.80;0.80;;;;;;;12.83;88.99;101315.81;6048384;29;20593;-74
2021/11/10 11:11:58;;;;;;;0.80;0.80;;;;;;;12.82;89.12;101338.78;6049397;29;20195;-73
2021/11/10 11:15:10;;;;;;;1.17;0.60;;;;;;;12.92;88.66;101339.13;6048428;29;20518;-73
2021/11/10 11:18:21;;;;;;;0.82;0.70;;;;;;;12.90;89.28;101333.03;6049673;29;20236;-73
2021/11/10 11:21:27;;;;;;;0.70;0.70;;;;;;;12.79;90.37;101325.53;6049207;29;20198;-74
2021/11/10 11:24:43;;;;;;;0.70;0.70;;;;;;;12.91;89.41;101323.78;6049314;29;20254;-74
2021/11/10 11:27:53;;;;;;;0.80;0.80;;;;;;;12.91;88.82;101324.63;6047816;29;20219;-74
2021/11/10 11:30:58;;;;;;;1.45;0.70;;;;;;;12.97;89.06;101322.88;6048217;29;20191;-74
2021/11/10 11:34:04;;;;;;;0.80;0.80;;;;;;;12.82;88.33;101338.78;6049350;29;20195;-74
2021/11/10 11:37:12;;;;;;;2.40;0.88;;;;;;;12.94;88.62;101331.56;6049159;29;20273;-75
2021/11/10 11:40:20;;;;;;;1.13;0.77;;;;;;;12.90;88.28;101317.47;6048383;29;20216;-74
2021/11/10 11:43:26;;;;;;;0.85;0.85;;;;;;;12.87;88.39;101311.56;6048510;29;20198;-74
2021/11/10 11:46:30;;;;;;;1.15;0.90;;;;;;;12.93;88.52;101310.69;6048472;29;20222;-74
2021/11/10 11:49:37;;;;;;;0.85;0.85;;;;;;;12.86;88.64;101313.50;6048654;29;20237;-74
2021/11/10 11:52:42;;;;;;;1.10;1.10;;;;;;;12.88;88.23;101318.72;6048929;29;20231;-74
2021/11/10 11:55:54;;;;;;;0.80;0.80;;;;;;;12.89;87.74;101320.44;6048725;29;20190;-74
2021/11/10 11:59:02;;;;;;;0.90;0.90;;;;;;;12.89;87.58;101306.72;6048610;29;20266;-74
2021/11/10 12:02:23;;;;;;;1.38;0.80;;;;;;;12.92;87.36;101306.25;6047939;29;20191;-73
2021/11/10 12:05:29;;;;;;;3.03;1.08;;;;;;;12.95;86.32;101308.56;6047675;29;20249;-74
2021/11/10 12:08:39;;;;;;;0.85;0.85;;;;;;;12.88;86.62;101313.25;6048711;29;20223;-74
2021/11/10 12:11:50;;;;;;;3.90;1.20;;;;;;;12.87;86.60;101306.09;6048840;29;20223;-74
2021/11/10 12:14:59;;;;;;;1.00;1.00;;;;;;;12.86;86.86;101291.59;6047378;29;20247;-74
2021/11/10 12:18:07;;;;;;;0.90;0.90;;;;;;;12.91;86.40;101297.22;6048230;29;20191;-74
2021/11/10 12:21:12;;;;;;;0.88;0.88;;;;;;;12.89;85.99;101293.03;6047942;29;20271;-74
2021/11/10 12:24:23;;;;;;;1.05;0.98;;;;;;;12.90;85.13;101303.75;6048250;29;20190;-74
2021/11/10 12:27:37;;;;;;;1.00;0.82;;;;;;;12.89;84.81;101298.50;6048446;29;20215;-74
2021/11/10 12:30:44;;;;;;;0.90;0.90;;;;;;;12.70;84.82;101299.47;6047276;29;20258;-74
2021/11/10 12:33:48;;;;;;;1.55;0.90;;;;;;;12.68;85.74;101301.59;6047145;29;20487;-74
2021/11/10 12:36:53;;;;;;;1.15;0.90;;;;;;;12.72;85.66;101280.91;6048391;29;20231;-74
2021/11/10 12:40:11;;;;;;;0.80;0.80;;;;;;;12.69;86.37;101286.81;6048197;29;20195;-74
2021/11/10 12:43:19;;;;;;;1.45;1.15;;;;;;;12.65;85.24;101277.38;6046984;29;20191;-74
2021/11/10 12:46:23;;;;;;;1.00;0.95;;;;;;;12.68;84.62;101285.16;6046951;29;20385;-74
2021/11/10 12:49:28;;;;;;;1.58;0.93;;;;;;;12.66;84.14;101288.09;6046938;29;20416;-75
2021/11/10 12:52:44;;;;;;;0.93;0.93;;;;;;;12.68;83.42;101285.16;6046747;29;20535;-74
2021/11/10 12:55:52;;;;;;;1.05;1.05;;;;;;;12.56;83.00;101288.59;6048997;29;20235;-74
2021/11/10 12:59:02;;;;;;;1.00;1.00;;;;;;;12.66;83.17;101287.28;6051426;29;20565;-74
2021/11/10 13:02:13;;;;;;;0.93;0.93;;;;;;;12.52;82.41;101306.53;6052587;29;20191;-74
2021/11/10 13:05:25;;;;;;;1.95;1.10;;;;;;;12.44;81.65;101303.19;6051614;29;20546;-74
2021/11/10 13:08:50;;;;;;;1.27;1.10;;;;;;;12.46;81.72;101310.13;6052402;29;20255;-74
2021/11/10 13:11:57;;;;;;;0.93;0.93;;;;;;;12.50;81.82;101300.44;6051217;29;20510;-74
2021/11/10 13:15:04;;;;;;;1.38;1.05;;;;;;;12.56;80.81;101299.53;6051156;29;20520;-75
2021/11/10 13:18:22;;;;;;;0.75;0.75;;;;;;;12.50;80.20;101311.38;6052101;29;20267;-74
2021/11/10 13:21:26;;;;;;;4.40;1.30;;;;;;;12.52;80.34;101314.72;6051990;29;20258;-74
2021/11/10 13:24:30;;;;;;;1.70;1.55;;;;;;;12.49;79.62;101319.78;6051034;29;20191;-74
2021/11/10 13:27:38;;;;;;;1.98;0.90;;;;;;;12.51;79.32;101313.03;6052098;29;20271;-74
2021/11/10 13:31:04;;;;;;;1.05;1.00;;;;;;;12.52;78.50;101322.94;6050958;29;20554;-74
2021/11/10 13:34:10;;;;;;;3.22;1.17;;;;;;;12.60;78.16;101323.75;6052102;29;20258;-73
2021/11/10 13:37:16;;;;;;;2.45;1.30;;;;;;;12.54;78.59;101334.50;6052033;29;20198;-74
2021/11/10 13:40:22;;;;;;;4.03;1.13;;;;;;;12.43;78.50;101329.72;6050502;29;20418;-73
2021/11/10 13:43:27;;;;;;;3.13;1.10;;;;;;;12.51;78.01;101328.63;6051448;29;20191;-74
2021/11/10 13:46:34;;;;;;;1.70;1.05;;;;;;;12.51;78.08;101332.19;6051674;29;20191;-74
2021/11/10 13:49:40;;;;;;;1.30;1.20;;;;;;;12.56;77.92;101326.91;6051329;29;20282;-74
2021/11/10 13:52:44;;;;;;;1.98;1.02;;;;;;;12.41;79.66;101329.09;6051316;29;20199;-74
2021/11/10 13:55:53;;;;;;;1.77;1.13;;;;;;;12.34;79.86;101339.22;6051444;29;20198;-74
2021/11/10 13:59:01;;;;;;;2.00;1.90;;;;;;;12.35;80.35;101335.41;6050127;29;20195;-74
2021/11/10 14:02:09;;;;;;;1.33;1.10;;;;;;;12.36;80.22;101333.53;6049923;29;20403;-74
2021/11/10 14:05:16;;;;;;;3.92;1.40;;;;;;;12.39;79.76;101347.63;6051214;29;20242;-74
2021/11/10 14:08:22;;;;;;;3.55;1.25;;;;;;;12.43;80.74;101345.28;6050057;29;20201;-74
2021/11/10 14:11:27;;;;;;;1.33;1.20;;;;;;;12.53;80.72;101340.22;6050828;29;20195;-74
2021/11/10 14:14:35;;;;;;;3.22;1.25;;;;;;;12.52;80.44;101342.09;6050153;29;20191;-74
2021/11/10 14:17:44;;;;;;;1.00;1.00;;;;;;;12.56;80.83;101348.81;6049543;29;20582;-75
2021/11/10 14:20:50;;;;;;;2.85;1.40;;;;;;;12.50;81.55;101349.69;6050481;29;20195;-74
2021/11/10 14:23:59;;;;;;;3.78;1.13;;;;;;;12.54;81.48;101361.03;6050729;29;20227;-74